KDAA

Davison AAF Airport

Fort Belvoir, Virginia, USA
TAF KDAA 161700Z 1617/1723 19009KT 9999 SCT050 QNH2993INS BECMG 1700/1701 21006KT 9999 FEW050 QNH2981INS BECMG 1717/1718 23010G15KT 9000 -SHRA OVC035 QNH2979INS TEMPO 1718/1722 24015G25KT 4800 -TSRA OVC030CB TX34/1618Z TN25/1708Z
Issued Valid From Valid To
Jul-16 @ 17:00 UTC
(3 hours ago)
Jul-16 @ 17:00 UTC
(3 hours ago)
Jul-17 @ 23:00 UTC
(-1 days ago)
Jul-16 @ 17:00 to Jul-17 @ 00:00
TAF KDAA 161700Z 1617/1723 19009KT 9999 SCT050 QNH2993INS
Wind Visibility Clouds Readings
190° at 9 knots Greater than 6 miles
  • Scattered at 5,000' AGL
Altimeter 29.94" Hg
Pressure 1014 hPa
Becoming Jul-17 @ 00:00 to Jul-17 @ 17:00
BECMG 1700/1701 21006KT 9999 FEW050 QNH2981INS
Wind Visibility Clouds Readings
210° at 6 knots Greater than 6 miles
  • Few at 5,000' AGL
Altimeter 29.82" Hg
Pressure 1010 hPa
Becoming Jul-17 @ 17:00 to Jul-17 @ 23:00
BECMG 1717/1718 23010G15KT 9000 -SHRA OVC035 QNH2979INS
Wind Visibility Clouds Conditions Readings
230° at 10 knots
 Gusting to 15 knots
51/59 miles
  • Overcast at 3,500' AGL
  • Light Rain
Altimeter 29.79" Hg
Pressure 1009 hPa
Temporary Jul-17 @ 18:00 to Jul-17 @ 22:00
TEMPO 1718/1722 24015G25KT 4800 -TSRA OVC030CB TX34/1618Z TN25/1708Z
Wind Visibility Clouds Conditions
240° at 15 knots
 Gusting to 25 knots
21/98 miles
  • Overcast at 3,000' AGL
  • Light Thunderstorm
  • Light Rain
TAF KDAA 161700Z 1617/1723 19009KT 9999 SCT050 QNH2993INS BECMG 1700/1701 21006KT 9999 FEW050 QNH2981INS BECMG 1717/1718 23010G15KT 9000 -SHRA OVC035 QNH2979INS TEMPO 1718/1722 24015G25KT 4800 -TSRA OVC030CB TX34/1618Z TN25/1708Z
Issued Jul-16 @ 17:00 UTC
(3 hours ago)
Valid From Jul-16 @ 17:00 UTC
(3 hours ago)
Valid To Jul-17 @ 23:00 UTC
(-1 days ago)
Jul-16 @ 17:00 - Jul-17 @ 00:00
Wind Visibility
190° at 9 knots Greater than 6 miles
Clouds
  • Scattered at 5,000' AGL
Becoming Jul-17 @ 00:00 - Jul-17 @ 17:00
Wind Visibility
210° at 6 knots Greater than 6 miles
Clouds
  • Few at 5,000' AGL
Becoming Jul-17 @ 17:00 - Jul-17 @ 23:00
Wind Visibility
230° at 10 knots
 Gusting to 15 knots
51/59 miles
Clouds
  • Overcast at 3,500' AGL
Conditions
  • Light Rain
Temporary Jul-17 @ 18:00 - Jul-17 @ 22:00
Wind Visibility
240° at 15 knots
 Gusting to 25 knots
21/98 miles
Clouds
  • Overcast at 3,000' AGL
Conditions
  • Light Thunderstorm
  • Light Rain